createdAt,value
2017-12-25T00:00:28.129Z,3.07
2017-12-25T00:03:52.378Z,2.77
2017-12-25T00:07:15.851Z,3.60
2017-12-25T00:10:39.329Z,2.40
2017-12-25T00:14:02.964Z,2.30
2017-12-25T00:17:26.432Z,3.90
2017-12-25T00:20:50.429Z,1.90
2017-12-25T00:24:14.007Z,2.50
2017-12-25T00:27:37.537Z,3.10
2017-12-25T00:31:00.995Z,2.53
2017-12-25T00:34:25.230Z,2.27
2017-12-25T00:37:48.727Z,1.47
2017-12-25T00:41:12.251Z,2.30
2017-12-25T00:44:35.736Z,2.07
2017-12-25T00:47:59.227Z,2.40
2017-12-25T00:51:22.822Z,1.93
2017-12-25T00:54:46.494Z,1.93
2017-12-25T00:58:09.973Z,1.87
2017-12-25T01:01:33.442Z,2.07
2017-12-25T01:04:56.994Z,1.87
2017-12-25T01:08:20.471Z,2.00
2017-12-25T01:11:43.935Z,1.90
2017-12-25T01:15:07.547Z,1.70
2017-12-25T01:18:31.810Z,1.60
2017-12-25T01:21:55.296Z,1.80
2017-12-25T01:25:18.774Z,1.60
2017-12-25T01:28:43.047Z,1.90
2017-12-25T01:32:06.541Z,2.00
2017-12-25T01:35:30.006Z,1.70
2017-12-25T01:38:53.510Z,2.20
2017-12-25T01:42:17.774Z,1.83
2017-12-25T01:45:41.212Z,1.40
2017-12-25T01:49:04.697Z,1.50
2017-12-25T01:52:28.169Z,1.20
2017-12-25T01:55:51.743Z,1.67
2017-12-25T01:59:30.841Z,1.50
2017-12-25T02:02:54.319Z,1.33
2017-12-25T02:06:29.782Z,1.53
2017-12-25T02:09:53.391Z,2.00
2017-12-25T02:13:17.021Z,1.53
2017-12-25T02:16:40.530Z,1.20
2017-12-25T02:20:03.994Z,1.17
2017-12-25T02:23:27.573Z,0.73
2017-12-25T02:26:51.039Z,1.17
2017-12-25T02:30:14.518Z,2.20
2017-12-25T02:33:37.951Z,1.30
2017-12-25T02:37:01.431Z,2.23
2017-12-25T02:40:24.885Z,1.37
2017-12-25T02:43:48.332Z,1.40
2017-12-25T02:47:11.799Z,1.40
2017-12-25T02:50:35.237Z,0.90
2017-12-25T02:53:58.898Z,1.40
2017-12-25T02:57:22.383Z,1.00
2017-12-25T03:00:47.484Z,0.90
2017-12-25T03:04:10.931Z,1.40
2017-12-25T03:07:34.414Z,1.20
2017-12-25T03:10:57.858Z,1.47
2017-12-25T03:14:22.093Z,0.97
2017-12-25T03:17:45.563Z,0.77
2017-12-25T03:21:09.010Z,1.00
2017-12-25T03:24:32.491Z,1.00
2017-12-25T03:27:55.974Z,0.70
2017-12-25T03:31:19.431Z,1.00
2017-12-25T03:34:42.922Z,0.70
2017-12-25T03:38:06.469Z,1.10
2017-12-25T03:41:30.126Z,1.60
2017-12-25T03:44:54.358Z,0.90
2017-12-25T03:48:17.865Z,1.03
2017-12-25T03:51:41.338Z,0.90
2017-12-25T03:55:04.782Z,1.30
2017-12-25T03:58:28.310Z,0.93
2017-12-25T04:01:52.609Z,1.07
2017-12-25T04:05:16.070Z,0.67
2017-12-25T04:08:40.319Z,0.70
2017-12-25T04:12:03.803Z,0.73
2017-12-25T04:15:27.246Z,0.80
2017-12-25T04:18:50.898Z,0.97
2017-12-25T04:22:14.381Z,0.70
2017-12-25T04:25:37.933Z,0.90
2017-12-25T04:29:01.406Z,1.33
2017-12-25T04:32:24.858Z,0.70
2017-12-25T04:35:49.077Z,0.80
2017-12-25T04:39:12.542Z,0.70
2017-12-25T04:42:35.997Z,0.70
2017-12-25T04:45:59.482Z,0.80
2017-12-25T04:49:22.942Z,0.60
2017-12-25T04:52:46.416Z,0.60
2017-12-25T04:56:09.892Z,0.70
2017-12-25T04:59:33.521Z,0.77
2017-12-25T05:02:57.060Z,0.70
2017-12-25T05:06:20.619Z,1.10
2017-12-25T05:09:44.078Z,0.60
2017-12-25T05:13:07.544Z,0.70
2017-12-25T05:16:31.775Z,1.10
2017-12-25T05:19:55.301Z,0.80
2017-12-25T05:23:19.547Z,0.60
2017-12-25T05:26:42.998Z,0.70
2017-12-25T05:30:06.625Z,0.80
2017-12-25T05:33:30.070Z,0.50
2017-12-25T05:36:53.595Z,0.70
2017-12-25T05:40:17.057Z,1.07
2017-12-25T05:43:40.622Z,0.57
2017-12-25T05:47:04.842Z,0.53
2017-12-25T05:50:28.310Z,0.60
2017-12-25T05:53:51.931Z,0.50
2017-12-25T05:57:15.373Z,0.60
2017-12-25T06:00:38.842Z,0.60
2017-12-25T06:04:02.495Z,0.60
2017-12-25T06:07:25.950Z,0.50
2017-12-25T06:10:50.291Z,0.60
2017-12-25T06:14:14.568Z,0.70
2017-12-25T06:17:38.031Z,0.60
2017-12-25T06:21:01.540Z,0.80
2017-12-25T06:24:24.990Z,0.50
2017-12-25T06:27:48.454Z,0.50
2017-12-25T06:31:11.895Z,0.50
2017-12-25T06:34:36.129Z,5.90
2017-12-25T06:37:59.583Z,0.73
2017-12-25T06:41:23.027Z,0.50
2017-12-25T06:44:47.257Z,0.53
2017-12-25T06:48:10.886Z,0.60
2017-12-25T06:51:35.102Z,0.60
2017-12-25T06:54:58.558Z,0.70
2017-12-25T06:58:22.905Z,0.50
2017-12-25T07:01:46.359Z,0.50
2017-12-25T07:05:09.940Z,0.50
2017-12-25T07:08:33.398Z,0.77
2017-12-25T07:11:56.848Z,0.90
2017-12-25T07:15:20.319Z,0.53
2017-12-25T07:18:43.926Z,0.93
2017-12-25T07:22:07.408Z,0.50
2017-12-25T07:25:30.870Z,0.50
2017-12-25T07:28:54.449Z,0.53
2017-12-25T07:32:17.938Z,0.67
2017-12-25T07:35:41.528Z,0.60
2017-12-25T07:39:05.757Z,0.50
2017-12-25T07:42:29.228Z,0.50
2017-12-25T07:45:52.703Z,0.60
2017-12-25T07:49:16.169Z,0.67
2017-12-25T07:52:40.416Z,0.93
2017-12-25T07:56:05.402Z,0.50
2017-12-25T07:59:28.858Z,1.27
2017-12-25T08:02:52.335Z,0.60
2017-12-25T08:06:15.871Z,2.87
2017-12-25T08:09:39.459Z,6.70
2017-12-25T08:13:03.685Z,7.17
2017-12-25T08:16:27.286Z,6.83
2017-12-25T08:19:52.269Z,16.03
2017-12-25T08:23:15.890Z,5.87
2017-12-25T08:26:39.354Z,5.80
2017-12-25T08:30:03.597Z,7.90
2017-12-25T08:33:27.150Z,4.00
2017-12-25T08:36:50.839Z,5.70
2017-12-25T08:40:14.338Z,3.53
2017-12-25T08:43:37.921Z,3.63
2017-12-25T08:47:01.453Z,2.20
2017-12-25T08:50:24.913Z,3.87
2017-12-25T08:53:48.458Z,7.50
2017-12-25T08:57:12.715Z,4.03
2017-12-25T09:00:36.181Z,4.50
2017-12-25T09:03:59.672Z,2.50
2017-12-25T09:07:23.146Z,3.03
2017-12-25T09:10:47.368Z,1.70
2017-12-25T09:14:10.830Z,1.20
2017-12-25T09:17:34.366Z,2.23
2017-12-25T09:20:57.898Z,2.73
2017-12-25T09:24:22.099Z,2.87
2017-12-25T09:27:45.587Z,2.53
2017-12-25T09:31:09.048Z,1.80
2017-12-25T09:34:32.518Z,3.23
2017-12-25T09:37:55.988Z,1.33
2017-12-25T09:41:19.475Z,1.70
2017-12-25T09:44:42.938Z,2.20
2017-12-25T09:48:06.399Z,2.70
2017-12-25T09:51:29.907Z,2.80
2017-12-25T09:54:53.407Z,1.43
2017-12-25T09:58:18.442Z,4.47
2017-12-25T10:01:41.950Z,1.37
2017-12-25T10:05:05.411Z,2.33
2017-12-25T10:08:28.888Z,1.67
2017-12-25T10:11:52.360Z,1.17
2017-12-25T10:15:15.865Z,1.50
2017-12-25T10:18:39.358Z,1.50
2017-12-25T10:22:03.629Z,3.03
2017-12-25T10:25:27.103Z,2.03
2017-12-25T10:28:51.343Z,2.30
2017-12-25T10:32:14.886Z,1.27
2017-12-25T10:35:39.112Z,1.03
2017-12-25T10:39:02.683Z,2.03
2017-12-25T10:42:26.161Z,1.50
2017-12-25T10:45:49.638Z,1.13
2017-12-25T10:49:13.119Z,0.90
2017-12-25T10:52:36.578Z,2.17
2017-12-25T10:56:00.051Z,1.20
2017-12-25T10:59:23.520Z,0.90
2017-12-25T11:02:47.036Z,1.63
2017-12-25T11:06:11.295Z,0.80
2017-12-25T11:09:34.771Z,1.77
2017-12-25T11:12:58.246Z,1.33
2017-12-25T11:16:21.730Z,1.17
2017-12-25T11:19:45.196Z,1.10
2017-12-25T11:23:08.667Z,0.70
2017-12-25T11:26:32.499Z,1.00
2017-12-25T11:29:56.139Z,2.50
2017-12-25T11:33:19.713Z,1.87
2017-12-25T11:36:43.187Z,3.23
2017-12-25T11:40:06.736Z,4.90
2017-12-25T11:43:30.219Z,1.47
2017-12-25T11:46:53.706Z,1.17
2017-12-25T11:50:17.949Z,1.40
2017-12-25T11:53:41.434Z,2.10
2017-12-25T11:57:04.882Z,2.20
2017-12-25T12:00:28.374Z,1.30
2017-12-25T12:03:51.830Z,1.70
2017-12-25T12:07:15.313Z,1.10
2017-12-25T12:10:38.804Z,1.30
2017-12-25T12:14:02.306Z,2.20
2017-12-25T12:17:26.538Z,2.63
2017-12-25T12:20:50.018Z,2.50
2017-12-25T12:24:13.489Z,2.23
2017-12-25T12:27:36.994Z,1.77
2017-12-25T12:31:01.306Z,2.70
2017-12-25T12:34:26.658Z,2.37
2017-12-25T12:37:50.125Z,4.80
2017-12-25T12:41:13.776Z,1.50
2017-12-25T12:44:38.072Z,2.40
2017-12-25T12:48:01.603Z,1.27
2017-12-25T12:51:25.068Z,1.00
2017-12-25T12:54:48.640Z,1.70
2017-12-25T12:58:12.238Z,1.20
2017-12-25T13:01:36.631Z,1.50
2017-12-25T13:05:00.123Z,1.80
2017-12-25T13:08:23.716Z,1.87
2017-12-25T13:11:47.198Z,2.70
2017-12-25T13:15:10.687Z,1.03
2017-12-25T13:18:34.878Z,1.53
2017-12-25T13:21:58.353Z,1.27
2017-12-25T13:25:21.835Z,1.83
2017-12-25T13:28:45.451Z,1.83
2017-12-25T13:32:09.794Z,1.67
2017-12-25T13:35:33.256Z,1.70
2017-12-25T13:38:56.706Z,1.80
2017-12-25T13:42:20.182Z,1.47
2017-12-25T13:45:43.665Z,2.60
2017-12-25T13:49:07.138Z,1.50
2017-12-25T13:52:30.648Z,1.50
2017-12-25T13:55:54.366Z,1.70
2017-12-25T13:59:17.840Z,4.27
2017-12-25T14:02:41.327Z,2.73
2017-12-25T14:06:04.829Z,2.33
2017-12-25T14:09:28.327Z,1.93
2017-12-25T14:12:51.940Z,1.10
2017-12-25T14:16:16.094Z,1.47
2017-12-25T14:19:39.570Z,4.97
2017-12-25T14:23:03.856Z,3.67
2017-12-25T14:26:28.138Z,2.10
2017-12-25T14:29:51.583Z,1.20
2017-12-25T14:33:15.074Z,4.00
2017-12-25T14:36:38.595Z,2.90
2017-12-25T14:40:02.902Z,2.73
2017-12-25T14:43:26.387Z,6.17
2017-12-25T14:46:49.843Z,2.80
2017-12-25T14:50:13.334Z,2.40
2017-12-25T14:53:36.800Z,2.30
2017-12-25T14:57:00.394Z,2.80
2017-12-25T15:00:23.862Z,2.93
2017-12-25T15:03:47.342Z,3.00
2017-12-25T15:07:10.815Z,1.37
2017-12-25T15:10:34.321Z,1.53
2017-12-25T15:13:57.789Z,6.43
2017-12-25T15:17:21.280Z,1.30
2017-12-25T15:20:44.738Z,2.00
2017-12-25T15:24:08.213Z,2.20
2017-12-25T15:27:31.709Z,2.40
2017-12-25T15:30:55.203Z,2.10
2017-12-25T15:34:18.698Z,0.80
2017-12-25T15:37:42.261Z,1.87
2017-12-25T15:41:05.917Z,1.57
2017-12-25T15:44:29.387Z,2.40
2017-12-25T15:47:52.879Z,1.97
2017-12-25T15:51:16.431Z,0.90
2017-12-25T15:54:39.956Z,0.80
2017-12-25T15:58:04.237Z,1.67
2017-12-25T16:01:28.473Z,1.13
2017-12-25T16:04:51.954Z,1.20
2017-12-25T16:08:15.429Z,1.87
2017-12-25T16:11:38.893Z,1.60
2017-12-25T16:15:02.386Z,1.67
2017-12-25T16:18:25.875Z,3.10
2017-12-25T16:21:49.371Z,1.10
2017-12-25T16:25:13.622Z,1.13
2017-12-25T16:28:37.094Z,2.60
2017-12-25T16:32:00.588Z,0.60
2017-12-25T16:35:24.842Z,1.17
2017-12-25T16:38:48.356Z,0.80
2017-12-25T16:42:11.852Z,0.93
2017-12-25T16:45:36.116Z,0.80
2017-12-25T16:48:59.739Z,1.43
2017-12-25T16:52:23.398Z,1.60
2017-12-25T16:55:46.847Z,1.10
2017-12-25T16:59:11.119Z,0.60
2017-12-25T17:02:34.587Z,0.60
2017-12-25T17:05:58.087Z,0.97
2017-12-25T17:09:22.362Z,0.80
2017-12-25T17:12:45.857Z,1.00
2017-12-25T17:16:11.249Z,1.00
2017-12-25T17:19:34.735Z,1.17
2017-12-25T17:22:59.175Z,0.70
2017-12-25T17:26:22.648Z,1.17
2017-12-25T17:29:46.943Z,0.80
2017-12-25T17:33:10.414Z,0.70
2017-12-25T17:36:33.923Z,0.70
2017-12-25T17:39:57.404Z,0.70
2017-12-25T17:43:21.707Z,0.70
2017-12-25T17:46:45.959Z,1.07
2017-12-25T17:50:09.449Z,0.80
2017-12-25T17:53:33.714Z,1.00
2017-12-25T17:56:57.226Z,0.97
2017-12-25T18:00:21.457Z,0.90
2017-12-25T18:03:44.922Z,0.70
2017-12-25T18:07:08.444Z,0.70
2017-12-25T18:10:31.946Z,0.73
2017-12-25T18:13:55.458Z,1.23
2017-12-25T18:17:18.940Z,0.50
2017-12-25T18:20:42.439Z,1.73
2017-12-25T18:24:06.831Z,0.60
2017-12-25T18:27:30.324Z,1.57
2017-12-25T18:30:53.786Z,0.60
2017-12-25T18:34:17.374Z,1.37
2017-12-25T18:37:40.892Z,1.57
2017-12-25T18:41:04.357Z,2.77
2017-12-25T18:44:27.902Z,2.87
2017-12-25T18:47:51.432Z,3.23
2017-12-25T18:51:15.074Z,3.50
2017-12-25T18:54:38.780Z,4.77
2017-12-25T18:58:02.320Z,4.50
2017-12-25T19:01:26.648Z,5.33
2017-12-25T19:04:50.146Z,4.63
2017-12-25T19:08:14.394Z,4.80
2017-12-25T19:11:37.868Z,4.67
2017-12-25T19:15:01.369Z,4.50
2017-12-25T19:18:24.828Z,6.20
2017-12-25T19:21:49.083Z,4.33
2017-12-25T19:25:12.567Z,4.87
2017-12-25T19:28:36.055Z,5.23
2017-12-25T19:32:00.501Z,6.13
2017-12-25T19:35:24.832Z,5.90
2017-12-25T19:38:49.196Z,4.57
2017-12-25T19:42:12.742Z,4.30
2017-12-25T19:45:36.291Z,4.33
2017-12-25T19:48:59.885Z,4.10
2017-12-25T19:52:23.446Z,4.37
2017-12-25T19:55:46.969Z,4.83
2017-12-25T19:59:10.465Z,4.30
2017-12-25T20:02:34.018Z,4.53
2017-12-25T20:05:57.546Z,4.13
2017-12-25T20:09:21.816Z,8.03
2017-12-25T20:12:46.195Z,4.43
2017-12-25T20:16:10.139Z,4.40
2017-12-25T20:19:34.016Z,2.97
2017-12-25T20:22:57.805Z,3.90
2017-12-25T20:26:21.585Z,2.90
2017-12-25T20:29:45.559Z,3.80
2017-12-25T20:33:09.104Z,2.40
2017-12-25T20:36:33.397Z,3.93
2017-12-25T20:39:57.713Z,3.50
2017-12-25T20:43:22.103Z,5.23
2017-12-25T20:46:45.990Z,3.10
2017-12-25T20:50:09.609Z,4.17
2017-12-25T20:53:33.200Z,2.70
2017-12-25T20:56:56.958Z,3.53
2017-12-25T21:00:20.725Z,2.90
2017-12-25T21:03:44.285Z,2.43
2017-12-25T21:07:08.061Z,2.17
2017-12-25T21:10:31.662Z,2.60
2017-12-25T21:13:55.257Z,2.80
2017-12-25T21:17:20.248Z,3.07
2017-12-25T21:20:45.297Z,2.23
2017-12-25T21:24:09.778Z,2.23
2017-12-25T21:27:34.041Z,3.20
2017-12-25T21:30:57.579Z,3.10
2017-12-25T21:34:21.111Z,3.30
2017-12-25T21:37:45.379Z,3.80
2017-12-25T21:41:08.878Z,3.20
2017-12-25T21:44:33.183Z,3.70
2017-12-25T21:47:57.400Z,4.20
2017-12-25T21:51:20.951Z,2.70
2017-12-25T21:54:44.502Z,3.57
2017-12-25T21:58:08.042Z,3.67
2017-12-25T22:01:31.530Z,4.20
2017-12-25T22:04:55.027Z,3.43
2017-12-25T22:08:19.305Z,2.40
2017-12-25T22:11:42.962Z,3.33
2017-12-25T22:15:06.686Z,3.40
2017-12-25T22:18:30.176Z,3.23
2017-12-25T22:21:53.694Z,4.37
2017-12-25T22:25:17.216Z,4.03
2017-12-25T22:28:40.698Z,3.50
2017-12-25T22:32:04.187Z,3.00
2017-12-25T22:35:27.671Z,3.53
2017-12-25T22:38:51.164Z,2.80
2017-12-25T22:42:14.615Z,8.20
2017-12-25T22:45:39.002Z,3.30
2017-12-25T22:49:02.551Z,3.57
2017-12-25T22:52:26.026Z,2.90
2017-12-25T22:55:49.511Z,3.57
2017-12-25T22:59:12.999Z,2.40
2017-12-25T23:02:36.524Z,3.87
2017-12-25T23:06:00.021Z,4.50
2017-12-25T23:09:23.496Z,3.93
2017-12-25T23:12:46.999Z,3.97
2017-12-25T23:16:10.490Z,2.43
2017-12-25T23:19:34.773Z,4.60
2017-12-25T23:22:58.271Z,2.40
2017-12-25T23:26:22.538Z,4.43
2017-12-25T23:29:46.769Z,2.57
2017-12-25T23:33:10.262Z,3.43
2017-12-25T23:36:33.870Z,2.67
2017-12-25T23:39:58.243Z,2.90
2017-12-25T23:43:21.733Z,2.23
2017-12-25T23:46:45.186Z,2.03
2017-12-25T23:50:08.655Z,2.50
2017-12-25T23:53:33.011Z,2.50
2017-12-25T23:56:56.475Z,1.90
